createdAt,value
2022-07-27T00:01:26.106Z,26
2022-07-27T00:03:36.495Z,26
2022-07-27T00:06:36.855Z,26
2022-07-27T00:09:37.862Z,25.4
2022-07-27T00:11:07.867Z,25.4
2022-07-27T00:12:37.330Z,24.5
2022-07-27T00:13:19.981Z,24.5
2022-07-27T00:15:31.202Z,24.5
2022-07-27T00:18:32.931Z,24.2
2022-07-27T00:21:46.955Z,24.2
2022-07-27T00:22:34.299Z,23.9
2022-07-27T00:24:37.090Z,23.9
2022-07-27T00:25:20.593Z,23.9
2022-07-27T00:27:37.313Z,23.9
2022-07-27T00:30:32.099Z,23.9
2022-07-27T00:33:37.783Z,23.5
2022-07-27T00:35:23.849Z,23.5
2022-07-27T00:36:36.690Z,23.5
2022-07-27T00:37:23.888Z,23.4
2022-07-27T00:41:33.360Z,23.4
2022-07-27T00:42:37.550Z,23.2
2022-07-27T00:45:37.437Z,23.2
2022-07-27T00:48:37.299Z,23
2022-07-27T00:51:37.478Z,23
2022-07-27T00:54:37.258Z,22.7
2022-07-27T00:55:47.820Z,22.7
2022-07-27T00:58:00.167Z,22.5
2022-07-27T00:59:22.020Z,22.5
2022-07-27T01:03:40.363Z,22.3
2022-07-27T01:06:37.123Z,22.3
2022-07-27T01:08:29.624Z,22.1
2022-07-27T01:09:12.622Z,22.1
2022-07-27T01:12:37.321Z,21.9
2022-07-27T01:15:29.710Z,21.9
2022-07-27T01:18:37.097Z,21.8
2022-07-27T01:21:37.296Z,21.8
2022-07-27T01:24:37.553Z,21.7
2022-07-27T01:27:37.227Z,21.5
2022-07-27T01:28:46.717Z,21.5
2022-07-27T01:33:37.451Z,21.2
2022-07-27T01:36:37.579Z,21.2
2022-07-27T01:39:37.144Z,21
2022-07-27T01:41:28.923Z,21
2022-07-27T01:42:37.033Z,20.9
2022-07-27T01:45:37.932Z,20.9
2022-07-27T01:48:37.618Z,20.9
2022-07-27T01:49:53.186Z,20.9
2022-07-27T01:51:37.091Z,20.9
2022-07-27T01:54:37.558Z,20.8
2022-07-27T01:55:24.588Z,20.8
2022-07-27T01:56:27.909Z,20.8
2022-07-27T01:57:37.519Z,20.8
2022-07-27T01:59:17.912Z,20.8
2022-07-27T02:03:37.071Z,20.8
2022-07-27T02:09:06.872Z,20.8
2022-07-27T02:19:28.915Z,20.8
2022-07-27T02:27:36.835Z,20.8
2022-07-27T02:34:32.008Z,20.8
2022-07-27T02:36:36.766Z,20.8
2022-07-27T02:39:10.131Z,20.6
2022-07-27T02:42:37.527Z,20.6
2022-07-27T02:45:36.869Z,20.6
2022-07-27T02:47:15.165Z,20.6
2022-07-27T02:48:02.476Z,20.6
2022-07-27T02:51:43.378Z,20.6
2022-07-27T02:53:48.579Z,20.6
2022-07-27T02:54:37.136Z,20.6
2022-07-27T02:55:24.277Z,20.6
2022-07-27T02:57:38.749Z,20.5
2022-07-27T03:00:45.835Z,20.5
2022-07-27T03:03:37.896Z,20.5
2022-07-27T03:05:30.972Z,20.5
2022-07-27T03:06:37.011Z,20.5
2022-07-27T03:08:14.730Z,20.6
2022-07-27T03:09:38.738Z,20.6
2022-07-27T03:10:49.380Z,20.6
2022-07-27T03:11:15.608Z,20.6
2022-07-27T03:12:37.279Z,20.5
2022-07-27T03:14:45.545Z,20.5
2022-07-27T03:15:37.867Z,20.5
2022-07-27T03:18:37.482Z,20.6
2022-07-27T03:21:37.247Z,20.6
2022-07-27T03:24:37.446Z,20.6
2022-07-27T03:27:37.087Z,20.6
2022-07-27T03:29:58.601Z,20.6
2022-07-27T03:33:37.699Z,20.6
2022-07-27T03:34:43.781Z,20.6
2022-07-27T03:36:37.469Z,20.6
2022-07-27T03:39:36.877Z,20.6
2022-07-27T03:40:35.797Z,20.6
2022-07-27T03:42:37.370Z,20.6
2022-07-27T03:45:37.648Z,20.6
2022-07-27T03:46:07.548Z,20.6
2022-07-27T03:48:07.236Z,20.5
2022-07-27T03:48:37.575Z,20.5
2022-07-27T03:51:36.891Z,20.5
2022-07-27T03:52:21.159Z,20.5
2022-07-27T03:54:37.214Z,20.5
2022-07-27T03:55:44.603Z,20.5
2022-07-27T03:57:37.098Z,20.5
2022-07-27T03:59:06.088Z,20.5
2022-07-27T04:00:58.227Z,20.5
2022-07-27T04:02:23.112Z,20.5
2022-07-27T04:03:44.837Z,20.5
2022-07-27T04:06:38.557Z,20.5
2022-07-27T04:09:32.716Z,20.5
2022-07-27T04:12:36.964Z,20.5
2022-07-27T04:14:13.215Z,20.5
2022-07-27T04:15:37.343Z,20.5
2022-07-27T04:17:58.466Z,20.5
2022-07-27T04:17:58.467Z,20.5
2022-07-27T04:19:25.948Z,20.5
2022-07-27T04:21:39.915Z,20.5
2022-07-27T04:24:37.107Z,20.5
2022-07-27T04:27:36.954Z,20.5
2022-07-27T04:29:38.506Z,20.5
2022-07-27T04:31:24.002Z,20.5
2022-07-27T04:32:50.250Z,20.5
2022-07-27T04:33:36.809Z,20.5
2022-07-27T04:35:27.568Z,20.5
2022-07-27T04:36:37.306Z,20.5
2022-07-27T04:38:25.534Z,20.6
2022-07-27T04:39:37.447Z,20.6
2022-07-27T04:40:22.981Z,20.6
2022-07-27T04:41:31.047Z,20.6
2022-07-27T04:42:50.162Z,20.6
2022-07-27T04:45:07.617Z,20.6
2022-07-27T04:45:38.318Z,20.6
2022-07-27T04:48:37.063Z,20.6
2022-07-27T04:51:37.629Z,20.6
2022-07-27T04:54:36.992Z,20.6
2022-07-27T04:57:20.339Z,20.6
2022-07-27T04:58:40.949Z,20.6
2022-07-27T05:01:00.911Z,20.6
2022-07-27T05:03:37.347Z,20.7
2022-07-27T05:05:19.289Z,20.7
2022-07-27T05:05:38.935Z,20.7
2022-07-27T05:06:37.671Z,20.7
2022-07-27T05:09:37.165Z,20.7
2022-07-27T05:11:37.264Z,20.8
2022-07-27T05:12:37.403Z,20.8
2022-07-27T05:15:56.416Z,20.8
2022-07-27T05:15:56.540Z,20.8
2022-07-27T05:17:16.957Z,20.9
2022-07-27T05:18:37.315Z,20.9
2022-07-27T05:19:41.491Z,20.9
2022-07-27T05:21:37.225Z,21
2022-07-27T05:22:46.151Z,21
2022-07-27T05:23:30.232Z,21
2022-07-27T05:27:37.016Z,21
2022-07-27T05:33:38.164Z,21
2022-07-27T05:35:37.073Z,21.5
2022-07-27T05:36:37.491Z,21.5
2022-07-27T05:39:37.059Z,21.6
2022-07-27T05:42:37.545Z,21.8
2022-07-27T05:45:37.470Z,21.8
2022-07-27T05:48:37.211Z,22
2022-07-27T05:49:26.793Z,22
2022-07-27T05:51:36.836Z,22
2022-07-27T05:54:36.795Z,22.2
2022-07-27T05:57:37.900Z,22.4
2022-07-27T06:03:37.162Z,22.5
2022-07-27T06:05:57.737Z,22.5
2022-07-27T06:06:37.420Z,22.5
2022-07-27T06:09:37.716Z,22.6
2022-07-27T06:12:36.894Z,22.7
2022-07-27T06:15:31.221Z,22.7
2022-07-27T06:18:37.176Z,22.8
2022-07-27T06:21:37.882Z,22.8
2022-07-27T06:24:37.121Z,22.9
2022-07-27T06:26:47.712Z,22.9
2022-07-27T06:27:38.525Z,23.1
2022-07-27T06:33:37.586Z,23.3
2022-07-27T06:36:36.835Z,23.3
2022-07-27T06:38:08.757Z,23.3
2022-07-27T06:39:33.304Z,23.3
2022-07-27T06:42:37.791Z,23.4
2022-07-27T06:44:13.941Z,23.4
2022-07-27T06:45:37.249Z,23.4
2022-07-27T06:47:29.374Z,23.4
2022-07-27T06:48:40.496Z,23.4
2022-07-27T06:50:12.570Z,23.4
2022-07-27T06:51:38.382Z,23.4
2022-07-27T06:57:38.134Z,23.6
2022-07-27T06:58:53.558Z,23.6
2022-07-27T07:03:37.219Z,23.7
2022-07-27T07:05:31.809Z,23.7
2022-07-27T07:06:37.697Z,23.7
2022-07-27T07:09:30.687Z,23.7
2022-07-27T07:10:54.948Z,23.7
2022-07-27T07:12:37.520Z,23.7
2022-07-27T07:14:29.354Z,23.7
2022-07-27T07:15:37.252Z,23.7
2022-07-27T07:17:28.721Z,23.7
2022-07-27T07:18:31.567Z,23.7
2022-07-27T07:36:38.268Z,23.7
2022-07-27T07:39:37.042Z,23.7
2022-07-27T07:45:37.533Z,24
2022-07-27T07:51:37.779Z,24
2022-07-27T07:54:37.969Z,24.7
2022-07-27T07:57:37.869Z,25.1
2022-07-27T08:00:30.145Z,25.1
2022-07-27T08:01:37.712Z,25.1
2022-07-27T08:03:37.597Z,25.4
2022-07-27T08:06:30.039Z,25.4
2022-07-27T08:12:25.954Z,26
2022-07-27T08:13:52.427Z,26
2022-07-27T08:15:37.561Z,26
2022-07-27T08:18:37.587Z,26.1
2022-07-27T08:21:37.263Z,26.1
2022-07-27T08:22:51.438Z,26.2
2022-07-27T08:24:37.232Z,26.2
2022-07-27T08:26:31.338Z,26.2
2022-07-27T08:27:41.477Z,26.3
2022-07-27T08:30:44.446Z,26.3
2022-07-27T08:33:41.562Z,26.3
2022-07-27T08:36:36.921Z,26.2
2022-07-27T08:37:48.107Z,26.2
2022-07-27T08:42:39.326Z,26.2
2022-07-27T08:51:11.683Z,26.1
2022-07-27T08:54:37.210Z,26.4
2022-07-27T08:57:37.623Z,26.5
2022-07-27T09:03:37.930Z,26.7
2022-07-27T09:05:13.908Z,26.7
2022-07-27T09:06:37.711Z,26.7
2022-07-27T09:12:37.723Z,26.7
2022-07-27T09:14:39.645Z,26.7
2022-07-27T09:27:37.353Z,27.2
2022-07-27T09:33:37.431Z,27.6
2022-07-27T09:36:37.566Z,27.7
2022-07-27T09:39:37.282Z,27.7
2022-07-27T09:44:32.106Z,27.6
2022-07-27T09:45:36.294Z,27.6
2022-07-27T09:48:42.155Z,27.7
2022-07-27T09:49:12.556Z,27.7
2022-07-27T09:52:03.181Z,27.9
2022-07-27T09:54:37.942Z,27.9
2022-07-27T09:56:11.688Z,27.9
2022-07-27T09:57:38.018Z,27.9
2022-07-27T10:03:38.089Z,28.3
2022-07-27T10:04:59.618Z,28.3
2022-07-27T10:05:51.551Z,28.3
2022-07-27T10:07:13.072Z,28.3
2022-07-27T10:09:38.861Z,28.5
2022-07-27T10:12:55.948Z,28.7
2022-07-27T10:15:38.096Z,28.7
2022-07-27T10:18:56.001Z,28.8
2022-07-27T10:19:28.204Z,28.8
2022-07-27T10:21:09.848Z,28.8
2022-07-27T10:23:39.701Z,28.8
2022-07-27T10:24:37.999Z,28.8
2022-07-27T10:27:38.275Z,28.7
2022-07-27T10:30:43.896Z,28.7
2022-07-27T10:33:43.146Z,28.6
2022-07-27T10:34:13.176Z,28.6
2022-07-27T10:36:38.585Z,28.6
2022-07-27T10:39:37.928Z,28.8
2022-07-27T10:42:38.501Z,29
2022-07-27T10:43:48.445Z,29
2022-07-27T10:45:04.491Z,29
2022-07-27T10:46:03.220Z,29
2022-07-27T10:46:50.642Z,29
2022-07-27T10:50:06.579Z,29.1
2022-07-27T10:51:37.495Z,29.1
2022-07-27T10:54:37.259Z,29.3
2022-07-27T10:56:59.137Z,29.3
2022-07-27T10:57:37.658Z,29.1
2022-07-27T11:03:45.183Z,29.2
2022-07-27T11:07:22.910Z,29.2
2022-07-27T11:07:43.969Z,29.2
2022-07-27T11:10:05.966Z,29.3
2022-07-27T11:10:50.955Z,29.3
2022-07-27T11:12:37.394Z,29.4
2022-07-27T11:15:36.880Z,29.4
2022-07-27T11:18:03.206Z,29.4
2022-07-27T11:18:39.907Z,29.2
2022-07-27T11:19:59.023Z,29.2
2022-07-27T11:21:37.657Z,29.2
2022-07-27T11:24:37.156Z,29.3
2022-07-27T11:27:26.029Z,29.4
2022-07-27T11:29:45.737Z,29.4
2022-07-27T11:33:37.182Z,29.5
2022-07-27T11:36:48.088Z,29.5
2022-07-27T11:38:33.492Z,29.1
2022-07-27T11:39:05.176Z,29.1
2022-07-27T11:40:56.680Z,29.1
2022-07-27T11:42:12.482Z,29.1
2022-07-27T11:42:36.922Z,29.5
2022-07-27T11:45:07.492Z,29.5
2022-07-27T11:47:37.120Z,29.8
2022-07-27T11:49:09.904Z,29.8
2022-07-27T11:51:36.863Z,29.8
2022-07-27T11:54:37.318Z,30
2022-07-27T11:57:14.798Z,30.1
2022-07-27T12:00:45.796Z,30.1
2022-07-27T12:02:46.102Z,30.1
2022-07-27T12:03:48.392Z,30.1
2022-07-27T12:06:23.527Z,29.9
2022-07-27T12:09:39.588Z,30
2022-07-27T12:12:37.109Z,30
2022-07-27T12:15:47.454Z,30
2022-07-27T12:18:36.872Z,30.3
2022-07-27T12:20:35.175Z,30.3
2022-07-27T12:21:48.997Z,30.3
2022-07-27T12:26:20.730Z,30.6
2022-07-27T12:27:40.066Z,30.6
2022-07-27T12:32:39.825Z,30.6
2022-07-27T12:33:36.869Z,30.6
2022-07-27T12:39:37.124Z,30.7
2022-07-27T12:42:37.470Z,31
2022-07-27T12:45:37.177Z,31
2022-07-27T12:48:12.156Z,30.9
2022-07-27T12:48:44.097Z,30.9
2022-07-27T12:51:37.953Z,30.9
2022-07-27T12:54:37.272Z,30.9
2022-07-27T12:55:24.305Z,30.9
2022-07-27T12:56:44.417Z,30.9
2022-07-27T12:57:57.607Z,30.9
2022-07-27T13:03:37.737Z,31.2
2022-07-27T13:06:37.477Z,31.2
2022-07-27T13:10:04.913Z,30.9
2022-07-27T13:10:05.016Z,30.9
2022-07-27T13:12:05.693Z,30.9
2022-07-27T13:12:37.380Z,30.7
2022-07-27T13:15:42.434Z,30.7
2022-07-27T13:18:37.046Z,30.9
2022-07-27T13:22:09.271Z,30.9
2022-07-27T13:24:37.389Z,31.2
2022-07-27T13:27:13.924Z,31.2
2022-07-27T13:28:29.724Z,31.2
2022-07-27T13:33:19.441Z,31.2
2022-07-27T13:36:37.193Z,30.9
2022-07-27T13:39:37.250Z,30.9
2022-07-27T13:41:09.497Z,30.9
2022-07-27T13:42:42.804Z,30.5
2022-07-27T13:45:44.355Z,30.5
2022-07-27T13:48:37.303Z,30.9
2022-07-27T13:50:27.323Z,30.9
2022-07-27T13:53:38.500Z,31
2022-07-27T13:54:11.857Z,31
2022-07-27T13:57:37.458Z,31.1
2022-07-27T13:59:23.686Z,31.1
2022-07-27T14:06:38.048Z,31.2
2022-07-27T14:09:18.832Z,31.3
2022-07-27T14:12:36.990Z,31.3
2022-07-27T14:13:57.333Z,31.3
2022-07-27T14:14:49.801Z,31.3
2022-07-27T14:15:55.986Z,31.3
2022-07-27T14:16:44.802Z,31.3
2022-07-27T14:18:36.896Z,31.4
2022-07-27T14:21:39.350Z,31.4
2022-07-27T14:24:38.744Z,31.1
2022-07-27T14:27:38.278Z,31.2
2022-07-27T14:29:38.691Z,31.2
2022-07-27T14:49:17.879Z,31.2
2022-07-27T14:51:36.754Z,31.2
2022-07-27T14:52:32.449Z,30.7
2022-07-27T14:54:38.454Z,30.7
2022-07-27T14:57:13.872Z,30.7
2022-07-27T14:59:12.695Z,30.7
2022-07-27T15:03:37.113Z,30.7
2022-07-27T15:06:39.818Z,30.7
2022-07-27T15:09:38.214Z,31
2022-07-27T15:12:38.651Z,30.9
2022-07-27T15:13:31.328Z,30.9
2022-07-27T15:15:38.352Z,30.9
2022-07-27T15:18:39.528Z,30.9
2022-07-27T15:21:23.381Z,30.9
2022-07-27T15:24:39.112Z,30.7
2022-07-27T15:27:39.487Z,30.7
2022-07-27T15:32:19.862Z,30.7
2022-07-27T15:33:38.811Z,30.9
2022-07-27T15:35:39.454Z,30.9
2022-07-27T15:36:52.614Z,30.9
2022-07-27T15:39:37.514Z,31.1
2022-07-27T15:42:39.244Z,30.9
2022-07-27T15:45:37.008Z,30.9
2022-07-27T15:48:38.445Z,30.9
2022-07-27T15:51:37.472Z,30.9
2022-07-27T15:53:26.069Z,30.9
2022-07-27T15:57:37.619Z,30.9
2022-07-27T15:58:27.954Z,30.9
2022-07-27T16:00:42.320Z,30.9
2022-07-27T16:01:54.190Z,30.9
2022-07-27T16:03:38.725Z,30.9
2022-07-27T16:12:39.152Z,30.9
2022-07-27T16:15:37.376Z,30.9
2022-07-27T16:18:39.786Z,30.9
2022-07-27T16:20:58.032Z,30.9
2022-07-27T16:21:56.423Z,30.9
2022-07-27T16:23:31.288Z,30.9
2022-07-27T16:25:02.996Z,30.9
2022-07-27T16:26:08.058Z,30.9
2022-07-27T16:27:36.773Z,30.9
2022-07-27T16:29:04.805Z,30.9
2022-07-27T16:36:39.903Z,30.3
2022-07-27T16:38:12.475Z,30.3
2022-07-27T16:39:36.866Z,30.3
2022-07-27T16:42:10.861Z,30.2
2022-07-27T16:44:15.399Z,30.2
2022-07-27T16:45:42.660Z,30.2
2022-07-27T16:47:30.834Z,30.1
2022-07-27T16:48:45.273Z,30.1
2022-07-27T16:50:09.926Z,30.1
2022-07-27T16:51:37.023Z,30.1
2022-07-27T16:54:25.385Z,30.1
2022-07-27T16:57:38.420Z,30
2022-07-27T16:58:45.783Z,30
2022-07-27T17:03:37.698Z,29.8
2022-07-27T17:06:37.494Z,29.8
2022-07-27T17:07:20.120Z,29.8
2022-07-27T17:09:37.248Z,29.8
2022-07-27T17:12:42.394Z,29.8
2022-07-27T17:14:32.708Z,29.8
2022-07-27T17:15:15.719Z,29.8
2022-07-27T17:18:41.106Z,29.8
2022-07-27T17:19:37.181Z,29.8
2022-07-27T17:21:41.904Z,29.8
2022-07-27T17:22:27.777Z,29.7
2022-07-27T17:24:38.899Z,29.7
2022-07-27T17:25:40.608Z,29.7
2022-07-27T17:27:37.279Z,29.6
2022-07-27T17:29:22.633Z,29.6
2022-07-27T17:33:08.500Z,29.6
2022-07-27T17:33:38.114Z,29.6
2022-07-27T17:36:16.090Z,29.6
2022-07-27T17:39:42.171Z,29.5
2022-07-27T17:41:25.950Z,29.5
2022-07-27T17:42:36.682Z,29.4
2022-07-27T17:45:37.170Z,29.4
2022-07-27T17:46:20.689Z,29.4
2022-07-27T17:48:38.805Z,29.4
2022-07-27T17:51:27.106Z,29.4
2022-07-27T17:54:37.989Z,29.4
2022-07-27T17:57:37.600Z,29.2
2022-07-27T17:58:45.938Z,29.2
2022-07-27T17:59:39.024Z,29.2
2022-07-27T18:03:37.574Z,29.1
2022-07-27T18:05:26.326Z,29.1
2022-07-27T18:06:37.383Z,29
2022-07-27T18:08:01.624Z,29
2022-07-27T18:09:34.939Z,29
2022-07-27T18:12:37.318Z,28.9
2022-07-27T18:15:37.527Z,28.9
2022-07-27T18:17:04.212Z,28.8
2022-07-27T18:18:37.407Z,28.8
2022-07-27T18:21:37.322Z,28.7
2022-07-27T18:22:28.321Z,28.7
2022-07-27T18:24:37.724Z,28.7
2022-07-27T18:25:22.725Z,28.7
2022-07-27T18:27:30.701Z,28.6
2022-07-27T18:31:09.172Z,28.6
2022-07-27T18:32:47.464Z,28.6
2022-07-27T18:33:38.453Z,28.5
2022-07-27T18:36:36.866Z,28.5
2022-07-27T18:39:13.346Z,28.4
2022-07-27T18:41:04.932Z,28.4
2022-07-27T18:42:37.591Z,28.4
2022-07-27T18:43:27.893Z,28.4
2022-07-27T18:44:58.051Z,28.4
2022-07-27T18:45:38.436Z,28.4
2022-07-27T18:48:37.629Z,28.3
2022-07-27T18:51:37.791Z,28.3
2022-07-27T18:54:37.058Z,28.2
2022-07-27T18:55:32.994Z,28.2
2022-07-27T18:57:37.859Z,28.1
2022-07-27T18:58:34.502Z,28.1
2022-07-27T19:03:43.992Z,28
2022-07-27T19:04:30.932Z,28
2022-07-27T19:07:56.378Z,27.9
2022-07-27T19:09:37.503Z,27.9
2022-07-27T19:12:37.048Z,27.9
2022-07-27T19:13:43.758Z,27.9
2022-07-27T19:15:37.296Z,27.9
2022-07-27T19:18:10.849Z,27.7
2022-07-27T19:21:37.999Z,27.7
2022-07-27T19:24:36.903Z,27.7
2022-07-27T19:27:38.911Z,27.7
2022-07-27T19:33:37.691Z,27.6
2022-07-27T19:36:23.942Z,27.6
2022-07-27T19:38:33.717Z,27.6
2022-07-27T19:40:45.530Z,27.6
2022-07-27T19:42:36.814Z,27.6
2022-07-27T19:44:10.771Z,27.6
2022-07-27T19:45:37.464Z,27.6
2022-07-27T19:48:37.566Z,27.6
2022-07-27T19:51:37.897Z,27.6
2022-07-27T19:53:31.079Z,27.6
2022-07-27T20:01:24.627Z,27.6
2022-07-27T20:02:10.465Z,27.6
2022-07-27T20:07:23.514Z,27.6
2022-07-27T20:12:37.763Z,27.4
2022-07-27T20:15:36.807Z,27.4
2022-07-27T20:18:37.833Z,27.2
2022-07-27T20:19:29.482Z,27.2
2022-07-27T20:21:37.572Z,27.2
2022-07-27T20:23:26.760Z,27.2
2022-07-27T20:24:37.207Z,27.2
2022-07-27T20:27:37.722Z,27
2022-07-27T20:29:55.323Z,27
2022-07-27T20:30:47.031Z,27
2022-07-27T20:32:07.256Z,27
2022-07-27T20:33:42.473Z,26.9
2022-07-27T20:36:36.980Z,26.9
2022-07-27T20:39:37.589Z,26.8
2022-07-27T20:42:30.425Z,26.7
2022-07-27T20:45:38.295Z,26.7
2022-07-27T20:48:38.010Z,26.7
2022-07-27T20:51:30.365Z,26.7
2022-07-27T20:53:09.961Z,26.5
2022-07-27T20:54:37.676Z,26.5
2022-07-27T20:55:56.438Z,26.5
2022-07-27T20:57:37.106Z,26.5
2022-07-27T21:02:11.356Z,26.5
2022-07-27T21:03:36.886Z,26.4
2022-07-27T21:06:37.311Z,26.4
2022-07-27T21:08:53.865Z,26.4
2022-07-27T21:09:41.827Z,26.4
2022-07-27T21:10:17.794Z,26.4
2022-07-27T21:12:21.208Z,26.4
2022-07-27T21:15:37.715Z,26.4
2022-07-27T21:17:53.336Z,26.3
2022-07-27T21:18:37.220Z,26.3
2022-07-27T21:21:37.595Z,26.3
2022-07-27T21:24:30.446Z,26.3
2022-07-27T21:27:35.128Z,26.3
2022-07-27T21:33:11.222Z,26.2
2022-07-27T21:33:40.735Z,26.2
2022-07-27T21:36:37.242Z,26.2
2022-07-27T21:38:13.469Z,26.2
2022-07-27T21:39:38.154Z,26.2
2022-07-27T21:41:31.702Z,26.2
2022-07-27T21:42:37.252Z,26.2
2022-07-27T21:45:37.319Z,26.2
2022-07-27T21:47:15.074Z,26.2
2022-07-27T21:48:37.522Z,26.1
2022-07-27T21:51:11.571Z,26.1
2022-07-27T21:54:37.380Z,26.1
2022-07-27T21:55:26.651Z,26.1
2022-07-27T21:57:37.172Z,26.1
2022-07-27T21:58:37.500Z,26.1
2022-07-27T22:03:40.597Z,26.1
2022-07-27T22:06:07.392Z,26.1
2022-07-27T22:09:07.709Z,26.1
2022-07-27T22:09:44.558Z,26.1
2022-07-27T22:12:37.674Z,26.1
2022-07-27T22:15:37.223Z,26
2022-07-27T22:17:51.548Z,26
2022-07-27T22:18:37.548Z,26
2022-07-27T22:21:36.917Z,26
2022-07-27T22:22:25.370Z,26
2022-07-27T22:24:37.061Z,26
2022-07-27T22:25:38.279Z,26
2022-07-27T22:26:34.429Z,26
2022-07-27T22:27:37.227Z,26
2022-07-27T22:29:46.873Z,25.9
2022-07-27T22:31:39.418Z,25.9
2022-07-27T22:33:45.034Z,25.9
2022-07-27T22:36:37.547Z,25.9
2022-07-27T22:38:51.537Z,25.9
2022-07-27T22:42:37.831Z,25.8
2022-07-27T22:43:48.706Z,25.8
2022-07-27T22:45:37.280Z,25.8
2022-07-27T22:48:37.669Z,25.7
2022-07-27T22:49:43.235Z,25.7
2022-07-27T22:51:54.877Z,25.7
2022-07-27T22:53:18.033Z,25.6
2022-07-27T22:54:37.306Z,25.6
2022-07-27T22:57:36.415Z,25.6
2022-07-27T23:00:34.723Z,25.6
2022-07-27T23:01:49.056Z,25.6
2022-07-27T23:03:36.954Z,25.5
2022-07-27T23:05:45.200Z,25.5
2022-07-27T23:06:37.062Z,25.4
2022-07-27T23:09:38.455Z,25.4
2022-07-27T23:10:18.749Z,25.4
2022-07-27T23:11:29.095Z,25.4
2022-07-27T23:12:37.047Z,25.4
2022-07-27T23:15:23.996Z,25.4
2022-07-27T23:18:18.489Z,25.3
2022-07-27T23:21:38.473Z,25.2
2022-07-27T23:23:36.035Z,25.2
2022-07-27T23:24:41.816Z,25.2
2022-07-27T23:27:37.488Z,25.2
2022-07-27T23:28:17.166Z,25.2
2022-07-27T23:33:37.017Z,25
2022-07-27T23:36:37.459Z,25
2022-07-27T23:39:37.856Z,24.9
2022-07-27T23:42:09.618Z,24.7
2022-07-27T23:42:39.615Z,24.7
2022-07-27T23:45:37.083Z,24.7
2022-07-27T23:48:37.547Z,24.6
2022-07-27T23:50:00.707Z,24.6
2022-07-27T23:51:36.869Z,24.6
2022-07-27T23:52:22.571Z,24.5
2022-07-27T23:54:37.146Z,24.5
2022-07-27T23:57:37.464Z,24.4
